sensor_id;sensor_type;location;lat;lon;timestamp;temperature;humidity
3069;DHT22;1545;51.728;8.796;2022-09-29T00:01:45;8.10;98.80
3069;DHT22;1545;51.728;8.796;2022-09-29T00:04:20;8.00;98.80
3069;DHT22;1545;51.728;8.796;2022-09-29T00:06:50;7.90;98.80
3069;DHT22;1545;51.728;8.796;2022-09-29T00:09:16;7.80;98.80
3069;DHT22;1545;51.728;8.796;2022-09-29T00:11:42;7.70;98.80
3069;DHT22;1545;51.728;8.796;2022-09-29T00:14:10;7.60;98.80
3069;DHT22;1545;51.728;8.796;2022-09-29T00:16:39;7.50;98.80
3069;DHT22;1545;51.728;8.796;2022-09-29T00:19:04;7.40;98.80
3069;DHT22;1545;51.728;8.796;2022-09-29T00:21:30;7.30;98.80
3069;DHT22;1545;51.728;8.796;2022-09-29T00:23:59;7.20;98.80
3069;DHT22;1545;51.728;8.796;2022-09-29T00:26:25;7.10;98.80
3069;DHT22;1545;51.728;8.796;2022-09-29T00:28:56;7.10;98.80
3069;DHT22;1545;51.728;8.796;2022-09-29T00:31:27;7.10;98.80
3069;DHT22;1545;51.728;8.796;2022-09-29T00:33:57;7.00;98.80
3069;DHT22;1545;51.728;8.796;2022-09-29T00:36:31;6.90;98.80
3069;DHT22;1545;51.728;8.796;2022-09-29T00:39:01;6.90;98.80
3069;DHT22;1545;51.728;8.796;2022-09-29T00:41:34;6.80;98.80
3069;DHT22;1545;51.728;8.796;2022-09-29T00:44:02;6.70;98.80
3069;DHT22;1545;51.728;8.796;2022-09-29T00:49:38;6.60;98.80
3069;DHT22;1545;51.728;8.796;2022-09-29T00:52:19;6.60;98.80
3069;DHT22;1545;51.728;8.796;2022-09-29T00:54:54;6.60;98.80
3069;DHT22;1545;51.728;8.796;2022-09-29T00:57:23;6.50;98.80
3069;DHT22;1545;51.728;8.796;2022-09-29T01:02:20;6.50;98.80
3069;DHT22;1545;51.728;8.796;2022-09-29T01:04:49;6.50;98.80
3069;DHT22;1545;51.728;8.796;2022-09-29T01:07:21;6.50;98.80
3069;DHT22;1545;51.728;8.796;2022-09-29T01:09:50;6.40;98.80
3069;DHT22;1545;51.728;8.796;2022-09-29T01:12:18;6.40;98.80
3069;DHT22;1545;51.728;8.796;2022-09-29T01:14:46;6.30;98.80
3069;DHT22;1545;51.728;8.796;2022-09-29T01:17:13;6.30;98.80
3069;DHT22;1545;51.728;8.796;2022-09-29T01:28:20;6.10;98.80
3069;DHT22;1545;51.728;8.796;2022-09-29T01:31:10;6.00;98.80
3069;DHT22;1545;51.728;8.796;2022-09-29T01:39:33;6.00;98.80
3069;DHT22;1545;51.728;8.796;2022-09-29T01:42:17;6.00;98.80
3069;DHT22;1545;51.728;8.796;2022-09-29T01:44:57;6.00;98.80
3069;DHT22;1545;51.728;8.796;2022-09-29T01:47:39;6.10;98.80
3069;DHT22;1545;51.728;8.796;2022-09-29T01:50:15;6.20;98.80
3069;DHT22;1545;51.728;8.796;2022-09-29T01:52:49;6.20;98.80
3069;DHT22;1545;51.728;8.796;2022-09-29T01:55:18;6.30;98.80
3069;DHT22;1545;51.728;8.796;2022-09-29T01:58:04;6.30;98.80
3069;DHT22;1545;51.728;8.796;2022-09-29T02:00:36;6.40;98.80
3069;DHT22;1545;51.728;8.796;2022-09-29T02:03:16;6.40;98.80
3069;DHT22;1545;51.728;8.796;2022-09-29T02:05:56;6.40;98.80
3069;DHT22;1545;51.728;8.796;2022-09-29T02:11:27;6.50;98.80
3069;DHT22;1545;51.728;8.796;2022-09-29T02:13:57;6.50;98.80
3069;DHT22;1545;51.728;8.796;2022-09-29T02:16:39;6.40;98.80
3069;DHT22;1545;51.728;8.796;2022-09-29T02:19:20;6.50;98.80
3069;DHT22;1545;51.728;8.796;2022-09-29T02:21:49;6.50;98.80
3069;DHT22;1545;51.728;8.796;2022-09-29T02:24:21;6.50;98.80
3069;DHT22;1545;51.728;8.796;2022-09-29T02:26:48;6.50;98.80
3069;DHT22;1545;51.728;8.796;2022-09-29T02:29:14;6.40;98.80
3069;DHT22;1545;51.728;8.796;2022-09-29T02:31:41;6.40;98.80
3069;DHT22;1545;51.728;8.796;2022-09-29T02:34:11;6.40;98.80
3069;DHT22;1545;51.728;8.796;2022-09-29T02:39:39;6.40;98.80
3069;DHT22;1545;51.728;8.796;2022-09-29T02:47:50;6.00;98.80
3069;DHT22;1545;51.728;8.796;2022-09-29T02:53:15;5.70;98.80
3069;DHT22;1545;51.728;8.796;2022-09-29T02:59:03;5.60;98.80
3069;DHT22;1545;51.728;8.796;2022-09-29T03:01:32;5.60;98.80
3069;DHT22;1545;51.728;8.796;2022-09-29T03:03:58;5.40;98.80
3069;DHT22;1545;51.728;8.796;2022-09-29T03:06:25;5.30;98.80
3069;DHT22;1545;51.728;8.796;2022-09-29T03:08:53;5.30;98.80
3069;DHT22;1545;51.728;8.796;2022-09-29T03:14:08;5.00;98.80
3069;DHT22;1545;51.728;8.796;2022-09-29T03:16:34;5.00;98.80
3069;DHT22;1545;51.728;8.796;2022-09-29T03:19:02;5.10;98.80
3069;DHT22;1545;51.728;8.796;2022-09-29T03:21:30;5.10;98.80
3069;DHT22;1545;51.728;8.796;2022-09-29T03:23:56;5.10;98.80
3069;DHT22;1545;51.728;8.796;2022-09-29T03:26:24;5.10;98.80
3069;DHT22;1545;51.728;8.796;2022-09-29T03:28:51;5.10;98.80
3069;DHT22;1545;51.728;8.796;2022-09-29T03:31:18;5.10;98.80
3069;DHT22;1545;51.728;8.796;2022-09-29T03:33:46;5.10;98.80
3069;DHT22;1545;51.728;8.796;2022-09-29T03:36:13;5.00;98.80
3069;DHT22;1545;51.728;8.796;2022-09-29T03:38:39;5.00;98.80
3069;DHT22;1545;51.728;8.796;2022-09-29T03:41:10;4.90;98.80
3069;DHT22;1545;51.728;8.796;2022-09-29T03:43:36;4.90;98.80
3069;DHT22;1545;51.728;8.796;2022-09-29T03:46:02;4.90;98.80
3069;DHT22;1545;51.728;8.796;2022-09-29T03:48:29;4.90;98.80
3069;DHT22;1545;51.728;8.796;2022-09-29T03:50:59;4.70;98.80
3069;DHT22;1545;51.728;8.796;2022-09-29T03:53:25;4.60;98.80
3069;DHT22;1545;51.728;8.796;2022-09-29T03:55:51;4.60;98.80
3069;DHT22;1545;51.728;8.796;2022-09-29T03:58:21;4.50;98.80
3069;DHT22;1545;51.728;8.796;2022-09-29T04:00:51;4.60;98.80
3069;DHT22;1545;51.728;8.796;2022-09-29T04:03:18;4.70;98.80
3069;DHT22;1545;51.728;8.796;2022-09-29T04:05:46;4.90;98.80
3069;DHT22;1545;51.728;8.796;2022-09-29T04:29:19;5.40;98.80
3069;DHT22;1545;51.728;8.796;2022-09-29T04:31:45;5.50;98.80
3069;DHT22;1545;51.728;8.796;2022-09-29T04:34:13;5.60;98.80
3069;DHT22;1545;51.728;8.796;2022-09-29T04:36:40;5.60;98.80
3069;DHT22;1545;51.728;8.796;2022-09-29T04:39:05;5.70;98.80
3069;DHT22;1545;51.728;8.796;2022-09-29T04:41:32;5.70;98.80
3069;DHT22;1545;51.728;8.796;2022-09-29T04:44:00;5.80;98.80
3069;DHT22;1545;51.728;8.796;2022-09-29T04:46:26;5.90;98.80
3069;DHT22;1545;51.728;8.796;2022-09-29T04:48:52;6.00;98.80
3069;DHT22;1545;51.728;8.796;2022-09-29T04:51:18;6.10;98.80
3069;DHT22;1545;51.728;8.796;2022-09-29T04:53:43;6.20;98.80
3069;DHT22;1545;51.728;8.796;2022-09-29T04:56:09;6.20;98.80
3069;DHT22;1545;51.728;8.796;2022-09-29T04:58:35;6.30;98.80
3069;DHT22;1545;51.728;8.796;2022-09-29T05:01:07;6.30;98.80
3069;DHT22;1545;51.728;8.796;2022-09-29T05:03:33;6.40;98.80
3069;DHT22;1545;51.728;8.796;2022-09-29T05:05:59;6.50;98.80
3069;DHT22;1545;51.728;8.796;2022-09-29T05:08:25;6.50;98.80
3069;DHT22;1545;51.728;8.796;2022-09-29T05:10:52;6.60;98.80
3069;DHT22;1545;51.728;8.796;2022-09-29T05:13:20;6.60;98.80
3069;DHT22;1545;51.728;8.796;2022-09-29T05:15:46;6.70;98.80
3069;DHT22;1545;51.728;8.796;2022-09-29T05:18:12;6.80;98.80
3069;DHT22;1545;51.728;8.796;2022-09-29T05:20:39;6.80;98.80
3069;DHT22;1545;51.728;8.796;2022-09-29T05:23:04;6.80;98.80
3069;DHT22;1545;51.728;8.796;2022-09-29T05:25:35;6.70;98.80
3069;DHT22;1545;51.728;8.796;2022-09-29T05:28:01;6.70;98.80
3069;DHT22;1545;51.728;8.796;2022-09-29T05:30:26;6.80;98.80
3069;DHT22;1545;51.728;8.796;2022-09-29T05:32:52;6.90;98.80
3069;DHT22;1545;51.728;8.796;2022-09-29T05:35:17;6.90;98.80
3069;DHT22;1545;51.728;8.796;2022-09-29T05:37:46;7.00;98.80
3069;DHT22;1545;51.728;8.796;2022-09-29T05:40:12;7.10;98.80
3069;DHT22;1545;51.728;8.796;2022-09-29T05:42:39;7.20;98.80
3069;DHT22;1545;51.728;8.796;2022-09-29T05:45:07;7.30;98.80
3069;DHT22;1545;51.728;8.796;2022-09-29T05:47:34;7.30;98.80
3069;DHT22;1545;51.728;8.796;2022-09-29T05:50:04;7.40;98.80
3069;DHT22;1545;51.728;8.796;2022-09-29T05:52:30;7.40;98.80
3069;DHT22;1545;51.728;8.796;2022-09-29T05:54:55;7.50;98.80
3069;DHT22;1545;51.728;8.796;2022-09-29T05:57:21;7.70;98.80
3069;DHT22;1545;51.728;8.796;2022-09-29T05:59:48;7.70;98.80
3069;DHT22;1545;51.728;8.796;2022-09-29T06:02:14;7.80;98.80
3069;DHT22;1545;51.728;8.796;2022-09-29T06:04:41;7.90;98.80
3069;DHT22;1545;51.728;8.796;2022-09-29T06:07:07;7.90;98.80
3069;DHT22;1545;51.728;8.796;2022-09-29T06:09:37;8.00;98.80
3069;DHT22;1545;51.728;8.796;2022-09-29T06:12:04;8.10;98.80
3069;DHT22;1545;51.728;8.796;2022-09-29T06:14:31;8.20;98.80
3069;DHT22;1545;51.728;8.796;2022-09-29T06:16:59;8.30;98.80
3069;DHT22;1545;51.728;8.796;2022-09-29T06:19:24;8.40;98.80
3069;DHT22;1545;51.728;8.796;2022-09-29T06:21:50;8.40;98.80
3069;DHT22;1545;51.728;8.796;2022-09-29T06:24:20;8.50;98.80
3069;DHT22;1545;51.728;8.796;2022-09-29T06:26:46;8.50;98.80
3069;DHT22;1545;51.728;8.796;2022-09-29T06:29:12;8.60;98.80
3069;DHT22;1545;51.728;8.796;2022-09-29T06:31:40;8.70;98.80
3069;DHT22;1545;51.728;8.796;2022-09-29T06:34:08;8.80;98.80
3069;DHT22;1545;51.728;8.796;2022-09-29T06:36:42;8.90;98.80
3069;DHT22;1545;51.728;8.796;2022-09-29T06:39:37;9.10;98.80
3069;DHT22;1545;51.728;8.796;2022-09-29T06:42:05;9.30;98.80
3069;DHT22;1545;51.728;8.796;2022-09-29T06:44:35;9.30;98.80
3069;DHT22;1545;51.728;8.796;2022-09-29T06:47:02;9.40;98.30
3069;DHT22;1545;51.728;8.796;2022-09-29T06:49:34;9.40;98.30
3069;DHT22;1545;51.728;8.796;2022-09-29T06:52:06;9.50;98.20
3069;DHT22;1545;51.728;8.796;2022-09-29T06:54:44;9.60;97.70
3069;DHT22;1545;51.728;8.796;2022-09-29T06:57:13;9.60;97.80
3069;DHT22;1545;51.728;8.796;2022-09-29T06:59:43;9.70;98.10
3069;DHT22;1545;51.728;8.796;2022-09-29T10:24:32;14.10;78.00
3069;DHT22;1545;51.728;8.796;2022-09-29T10:26:59;14.00;78.70
3069;DHT22;1545;51.728;8.796;2022-09-29T10:29:41;14.10;78.20
3069;DHT22;1545;51.728;8.796;2022-09-29T10:32:33;14.20;78.10
3069;DHT22;1545;51.728;8.796;2022-09-29T10:35:30;14.30;77.90
3069;DHT22;1545;51.728;8.796;2022-09-29T10:38:04;14.40;78.20
3069;DHT22;1545;51.728;8.796;2022-09-29T10:40:30;14.40;77.50
3069;DHT22;1545;51.728;8.796;2022-09-29T10:43:21;14.50;77.90
3069;DHT22;1545;51.728;8.796;2022-09-29T10:45:51;14.60;77.70
3069;DHT22;1545;51.728;8.796;2022-09-29T10:48:31;14.70;78.10
3069;DHT22;1545;51.728;8.796;2022-09-29T10:51:19;14.90;77.90
3069;DHT22;1545;51.728;8.796;2022-09-29T10:53:47;15.00;76.80
3069;DHT22;1545;51.728;8.796;2022-09-29T10:56:19;14.90;77.10
3069;DHT22;1545;51.728;8.796;2022-09-29T11:01:25;14.80;78.10
3069;DHT22;1545;51.728;8.796;2022-09-29T11:04:03;14.60;78.30
3069;DHT22;1545;51.728;8.796;2022-09-29T11:09:51;14.40;77.90
3069;DHT22;1545;51.728;8.796;2022-09-29T11:12:49;14.20;77.80
3069;DHT22;1545;51.728;8.796;2022-09-29T11:15:29;14.10;78.30
3069;DHT22;1545;51.728;8.796;2022-09-29T11:18:50;14.20;78.40
3069;DHT22;1545;51.728;8.796;2022-09-29T12:18:44;16.90;69.90
3069;DHT22;1545;51.728;8.796;2022-09-29T12:21:14;17.20;68.50
3069;DHT22;1545;51.728;8.796;2022-09-29T12:23:45;17.10;68.40
3069;DHT22;1545;51.728;8.796;2022-09-29T12:26:18;16.60;69.40
3069;DHT22;1545;51.728;8.796;2022-09-29T12:41:48;15.70;68.30
3069;DHT22;1545;51.728;8.796;2022-09-29T12:47:03;15.50;69.00
3069;DHT22;1545;51.728;8.796;2022-09-29T12:49:38;15.40;67.60
3069;DHT22;1545;51.728;8.796;2022-09-29T12:52:16;15.30;66.90
3069;DHT22;1545;51.728;8.796;2022-09-29T12:54:55;15.40;67.50
3069;DHT22;1545;51.728;8.796;2022-09-29T12:57:31;15.40;66.90
3069;DHT22;1545;51.728;8.796;2022-09-29T13:00:05;15.30;68.30
3069;DHT22;1545;51.728;8.796;2022-09-29T13:02:50;15.40;67.80
3069;DHT22;1545;51.728;8.796;2022-09-29T13:05:49;15.40;67.30
3069;DHT22;1545;51.728;8.796;2022-09-29T13:19:05;16.00;67.50
3069;DHT22;1545;51.728;8.796;2022-09-29T13:58:58;16.70;61.90
3069;DHT22;1545;51.728;8.796;2022-09-29T14:01:37;16.50;63.60
3069;DHT22;1545;51.728;8.796;2022-09-29T14:07:46;16.30;63.80
3069;DHT22;1545;51.728;8.796;2022-09-29T14:10:23;16.20;64.20
3069;DHT22;1545;51.728;8.796;2022-09-29T14:15:38;16.20;66.90
3069;DHT22;1545;51.728;8.796;2022-09-29T14:18:25;15.90;66.20
3069;DHT22;1545;51.728;8.796;2022-09-29T14:21:03;15.70;66.40
3069;DHT22;1545;51.728;8.796;2022-09-29T14:23:48;15.40;68.50
3069;DHT22;1545;51.728;8.796;2022-09-29T14:26:44;15.30;67.30
3069;DHT22;1545;51.728;8.796;2022-09-29T14:29:39;15.10;67.80
3069;DHT22;1545;51.728;8.796;2022-09-29T14:32:14;14.90;68.90
3069;DHT22;1545;51.728;8.796;2022-09-29T14:34:44;14.70;69.10
3069;DHT22;1545;51.728;8.796;2022-09-29T14:37:17;14.50;70.70
3069;DHT22;1545;51.728;8.796;2022-09-29T14:39:48;14.40;72.30
3069;DHT22;1545;51.728;8.796;2022-09-29T21:47:53;5.90;98.80
3069;DHT22;1545;51.728;8.796;2022-09-29T21:50:44;6.00;98.80
